Terminal Aerodrome Forecast
Issued by NWS

Home | Current Version | Previous Version | Text Only | Print | Product List | Glossary On
Versions: 1 2 3 4 5 6 7 8 9 10 11 12
000
FTUS45 KABQ 301741
TAFAEG
TAF
KAEG 301741Z 3018/3118 12011KT P6SM FEW050
     FM302000 17007KT P6SM FEW070
     FM302200 28010KT P6SM VCSH SCT080 BKN150
     FM310200 13007KT P6SM SCT120=

USA.gov is the U.S. government's official web portal to all federal, state and local government web resources and services.